createdAt,value
2023-04-29T00:00:25.049Z,34.37
2023-04-29T00:02:52.048Z,36.53
2023-04-29T00:05:18.852Z,36.23
2023-04-29T00:07:45.469Z,35.93
2023-04-29T00:10:14.679Z,36.10
2023-04-29T00:12:41.735Z,35.80
2023-04-29T00:15:08.879Z,35.07
2023-04-29T00:17:36.688Z,33.10
2023-04-29T00:20:04.114Z,35.10
2023-04-29T00:22:30.646Z,34.50
2023-04-29T00:24:57.125Z,34.60
2023-04-29T00:27:23.529Z,34.57
2023-04-29T00:29:50.197Z,31.90
2023-04-29T00:32:17.016Z,34.53
2023-04-29T00:34:46.205Z,33.33
2023-04-29T00:37:12.679Z,32.67
2023-04-29T00:39:39.315Z,33.10
2023-04-29T00:42:06.075Z,32.13
2023-04-29T00:44:32.554Z,32.60
2023-04-29T00:46:59.278Z,32.93
2023-04-29T00:49:27.728Z,34.93
2023-04-29T00:51:57.797Z,34.57
2023-04-29T00:54:24.370Z,31.80
2023-04-29T00:56:51.928Z,31.67
2023-04-29T00:59:18.711Z,32.13
2023-04-29T01:01:45.458Z,34.20
2023-04-29T01:04:13.606Z,32.67
2023-04-29T01:06:54.574Z,31.70
2023-04-29T01:09:47.264Z,32.60
2023-04-29T01:12:25.238Z,31.63
2023-04-29T01:15:23.960Z,31.20
2023-04-29T01:18:05.563Z,29.80
2023-04-29T01:20:33.474Z,31.03
2023-04-29T01:22:59.863Z,30.00
2023-04-29T01:25:27.178Z,28.53
2023-04-29T01:28:13.641Z,28.57
2023-04-29T01:30:49.906Z,28.40
2023-04-29T01:33:27.735Z,27.87
2023-04-29T01:36:13.416Z,27.40
2023-04-29T01:38:47.303Z,27.67
2023-04-29T01:41:23.607Z,27.73
2023-04-29T01:43:56.780Z,27.57
2023-04-29T01:46:24.107Z,27.97
2023-04-29T01:48:54.982Z,28.57
2023-04-29T01:51:21.837Z,28.20
2023-04-29T01:53:48.634Z,28.47
2023-04-29T01:56:15.137Z,30.67
2023-04-29T01:59:08.275Z,31.07
2023-04-29T02:01:53.233Z,34.13
2023-04-29T02:04:20.408Z,34.33
2023-04-29T02:06:46.860Z,34.27
2023-04-29T02:09:13.297Z,33.73
2023-04-29T02:11:46.752Z,34.93
2023-04-29T02:14:13.869Z,34.70
2023-04-29T02:16:40.435Z,33.63
2023-04-29T02:19:07.308Z,35.27
2023-04-29T02:21:35.241Z,34.03
2023-04-29T02:24:02.523Z,34.10
2023-04-29T02:26:28.938Z,34.67
2023-04-29T02:28:57.221Z,33.40
2023-04-29T02:31:23.819Z,31.27
2023-04-29T02:33:50.888Z,32.13
2023-04-29T02:36:18.236Z,32.37
2023-04-29T02:38:44.710Z,30.50
2023-04-29T02:41:16.643Z,30.07
2023-04-29T02:43:43.951Z,31.67
2023-04-29T02:46:10.818Z,31.07
2023-04-29T02:48:37.783Z,31.00
2023-04-29T02:51:04.644Z,31.90
2023-04-29T02:53:31.152Z,30.80
2023-04-29T02:55:57.733Z,32.07
2023-04-29T02:58:24.558Z,31.20
2023-04-29T03:00:51.219Z,32.07
2023-04-29T03:03:17.942Z,30.70
2023-04-29T03:05:44.559Z,31.57
2023-04-29T03:08:11.193Z,31.57
2023-04-29T03:10:39.262Z,32.40
2023-04-29T03:13:07.773Z,33.37
2023-04-29T03:15:35.393Z,32.37
2023-04-29T03:18:04.673Z,31.27
2023-04-29T03:20:33.633Z,32.87
2023-04-29T03:23:02.536Z,33.97
2023-04-29T03:25:29.143Z,36.43
2023-04-29T03:27:56.046Z,36.77
2023-04-29T03:30:22.717Z,37.23
2023-04-29T03:32:52.239Z,39.07
2023-04-29T03:35:18.972Z,40.03
2023-04-29T03:38:14.015Z,40.07
2023-04-29T03:40:40.733Z,41.03
2023-04-29T03:43:09.278Z,42.37
2023-04-29T03:45:35.994Z,43.33
2023-04-29T03:48:03.691Z,47.60
2023-04-29T03:50:30.815Z,48.63
2023-04-29T03:52:57.821Z,48.97
2023-04-29T03:55:24.262Z,48.00
2023-04-29T03:57:51.156Z,50.60
2023-04-29T04:00:18.807Z,49.27
2023-04-29T04:02:49.794Z,50.13
2023-04-29T04:05:19.385Z,48.93
2023-04-29T04:07:50.008Z,49.63
2023-04-29T04:10:42.466Z,48.57
2023-04-29T04:13:20.357Z,47.93
2023-04-29T04:15:52.136Z,46.53
2023-04-29T04:18:18.971Z,47.33
2023-04-29T04:20:45.491Z,47.03
2023-04-29T04:23:12.188Z,48.63
2023-04-29T04:25:39.198Z,49.10
2023-04-29T04:28:23.880Z,49.30
2023-04-29T04:30:58.678Z,50.20
2023-04-29T04:33:26.209Z,50.53
2023-04-29T04:35:53.143Z,51.13
2023-04-29T04:38:19.572Z,51.10
2023-04-29T04:40:46.917Z,48.23
2023-04-29T04:43:34.932Z,45.13
2023-04-29T04:46:14.229Z,49.23
2023-04-29T04:48:51.104Z,49.67
2023-04-29T04:51:19.269Z,49.10
2023-04-29T04:53:45.764Z,50.33
2023-04-29T04:56:18.977Z,48.10
2023-04-29T04:58:46.523Z,46.90
2023-04-29T05:01:14.155Z,49.53
2023-04-29T05:03:40.929Z,48.03
2023-04-29T05:06:07.747Z,45.90
2023-04-29T05:08:34.677Z,46.10
2023-04-29T05:11:03.703Z,44.33
2023-04-29T05:13:30.256Z,43.93
2023-04-29T05:15:56.764Z,43.73
2023-04-29T05:18:26.741Z,41.60
2023-04-29T05:20:53.247Z,38.30
2023-04-29T05:23:20.018Z,37.77
2023-04-29T05:25:47.042Z,36.07
2023-04-29T05:28:13.846Z,34.93
2023-04-29T05:30:41.703Z,34.93
2023-04-29T05:33:08.489Z,34.13
2023-04-29T05:35:34.883Z,34.20
2023-04-29T05:38:02.601Z,35.10
2023-04-29T05:40:38.082Z,33.87
2023-04-29T05:43:39.682Z,34.10
2023-04-29T05:46:06.449Z,33.37
2023-04-29T05:48:32.890Z,33.63
2023-04-29T05:50:59.437Z,33.27
2023-04-29T05:53:26.270Z,33.10
2023-04-29T05:55:53.246Z,31.70
2023-04-29T05:58:21.300Z,32.30
2023-04-29T06:00:49.336Z,31.63
2023-04-29T06:03:20.855Z,32.33
2023-04-29T06:05:52.285Z,30.87
2023-04-29T06:08:34.095Z,30.10
2023-04-29T06:11:23.252Z,29.80
2023-04-29T06:13:49.999Z,28.70
2023-04-29T06:16:17.840Z,28.70
2023-04-29T06:18:44.300Z,28.93
2023-04-29T06:21:10.710Z,28.63
2023-04-29T06:23:37.134Z,28.83
2023-04-29T06:26:09.515Z,28.47
2023-04-29T06:28:35.984Z,27.47
2023-04-29T06:31:02.834Z,28.43
2023-04-29T06:33:30.373Z,26.50
2023-04-29T06:35:57.244Z,26.30
2023-04-29T06:38:53.513Z,26.00
2023-04-29T06:41:38.780Z,25.27
2023-04-29T06:44:16.793Z,25.97
2023-04-29T06:46:52.719Z,25.10
2023-04-29T06:49:26.869Z,25.50
2023-04-29T06:51:53.952Z,24.70
2023-04-29T06:54:20.423Z,24.07
2023-04-29T06:56:50.092Z,23.13
2023-04-29T06:59:17.492Z,23.27
2023-04-29T07:01:44.978Z,21.47
2023-04-29T07:04:12.773Z,22.90
2023-04-29T07:06:39.361Z,22.00
2023-04-29T07:09:06.619Z,21.17
2023-04-29T07:11:33.519Z,21.70
2023-04-29T07:14:00.043Z,22.07
2023-04-29T07:16:30.084Z,22.17
2023-04-29T07:18:56.553Z,20.60
2023-04-29T07:21:22.968Z,20.90
2023-04-29T07:23:49.462Z,20.60
2023-04-29T07:26:17.415Z,20.70
2023-04-29T07:28:45.716Z,20.80
2023-04-29T07:31:15.161Z,21.70
2023-04-29T07:33:41.632Z,22.03
2023-04-29T07:36:10.932Z,21.50
2023-04-29T07:38:37.378Z,21.40
2023-04-29T07:41:06.852Z,20.13
2023-04-29T07:43:33.894Z,19.60
2023-04-29T07:46:00.372Z,19.80
2023-04-29T07:48:28.011Z,20.00
2023-04-29T07:50:54.705Z,20.00
2023-04-29T07:53:21.682Z,19.50
2023-04-29T07:55:50.898Z,17.83
2023-04-29T07:58:18.826Z,17.33
2023-04-29T08:00:45.506Z,16.77
2023-04-29T08:03:12.291Z,16.77
2023-04-29T08:05:39.231Z,17.00
2023-04-29T08:08:06.725Z,16.63
2023-04-29T08:10:33.161Z,16.40
2023-04-29T08:13:00.433Z,15.37
2023-04-29T08:15:28.266Z,16.60
2023-04-29T08:17:54.789Z,15.63
2023-04-29T08:20:21.467Z,15.00
2023-04-29T08:22:47.998Z,15.87
2023-04-29T08:25:14.393Z,16.30
2023-04-29T08:27:40.925Z,15.77
2023-04-29T08:30:08.264Z,15.63
2023-04-29T08:32:35.346Z,15.57
2023-04-29T08:35:03.091Z,15.27
2023-04-29T08:37:29.495Z,14.73
2023-04-29T08:39:55.977Z,15.37
2023-04-29T08:42:33.786Z,15.17
2023-04-29T08:45:01.908Z,16.03
2023-04-29T08:47:34.135Z,16.27
2023-04-29T08:50:05.380Z,15.43
2023-04-29T08:52:32.846Z,14.43
2023-04-29T08:55:02.710Z,14.13
2023-04-29T08:57:31.705Z,14.57
2023-04-29T09:00:01.107Z,15.00
2023-04-29T09:02:28.091Z,14.33
2023-04-29T09:05:04.820Z,14.97
2023-04-29T09:07:32.068Z,14.90
2023-04-29T09:09:59.545Z,15.40
2023-04-29T09:12:26.176Z,16.33
2023-04-29T09:14:52.715Z,16.30
2023-04-29T09:17:21.291Z,18.30
2023-04-29T09:19:47.709Z,16.83
2023-04-29T09:22:14.088Z,18.27
2023-04-29T09:24:40.820Z,19.17
2023-04-29T09:27:08.038Z,18.77
2023-04-29T09:29:36.539Z,18.87
2023-04-29T09:32:19.450Z,19.33
2023-04-29T09:34:46.050Z,18.93
2023-04-29T09:37:27.829Z,18.83
2023-04-29T09:39:54.760Z,18.17
2023-04-29T09:42:21.129Z,17.80
2023-04-29T09:44:47.722Z,18.80
2023-04-29T09:47:14.794Z,18.70
2023-04-29T09:49:43.021Z,18.20
2023-04-29T09:52:16.822Z,20.23
2023-04-29T09:54:44.312Z,21.10
2023-04-29T09:57:12.457Z,20.23
2023-04-29T09:59:40.345Z,21.13
2023-04-29T10:02:09.391Z,20.63
2023-04-29T10:04:40.324Z,18.70
2023-04-29T10:07:08.440Z,16.87
2023-04-29T10:09:38.143Z,17.23
2023-04-29T10:12:07.626Z,18.43
2023-04-29T10:14:48.956Z,18.67
2023-04-29T10:17:24.118Z,17.60
2023-04-29T10:20:05.643Z,17.13
2023-04-29T10:22:49.223Z,16.53
2023-04-29T10:25:17.308Z,17.07
2023-04-29T10:27:45.040Z,16.30
2023-04-29T10:30:13.830Z,14.07
2023-04-29T10:32:50.489Z,14.30
2023-04-29T10:35:20.431Z,15.67
2023-04-29T10:37:48.886Z,14.17
2023-04-29T10:40:46.591Z,12.33
2023-04-29T10:43:13.685Z,11.53
2023-04-29T10:45:40.642Z,10.87
2023-04-29T10:48:14.559Z,10.83
2023-04-29T10:50:47.095Z,11.43
2023-04-29T10:53:14.869Z,10.93
2023-04-29T10:55:41.865Z,10.53
2023-04-29T10:58:39.242Z,10.70
2023-04-29T11:01:07.863Z,10.97
2023-04-29T11:03:48.713Z,10.20
2023-04-29T11:06:15.859Z,9.73
2023-04-29T11:08:43.337Z,9.70
2023-04-29T11:11:10.006Z,10.63
2023-04-29T11:13:40.533Z,10.67
2023-04-29T11:16:08.754Z,10.07
2023-04-29T11:19:04.117Z,10.43
2023-04-29T11:21:32.525Z,10.17
2023-04-29T11:24:01.063Z,9.80
2023-04-29T11:26:28.091Z,9.37
2023-04-29T11:28:56.387Z,9.93
2023-04-29T11:31:28.992Z,9.67
2023-04-29T11:33:55.552Z,9.57
2023-04-29T11:36:22.194Z,9.50
2023-04-29T11:38:48.680Z,8.97
2023-04-29T11:41:15.749Z,8.70
2023-04-29T11:43:43.578Z,8.43
2023-04-29T11:46:14.574Z,9.67
2023-04-29T11:48:47.695Z,9.40
2023-04-29T11:51:15.845Z,10.47
2023-04-29T11:53:42.381Z,10.37
2023-04-29T11:56:10.556Z,10.70
2023-04-29T11:58:37.474Z,9.83
2023-04-29T12:01:04.565Z,9.83
2023-04-29T12:03:32.912Z,9.40
2023-04-29T12:06:01.901Z,9.87
2023-04-29T12:08:30.249Z,8.43
2023-04-29T12:10:58.287Z,7.60
2023-04-29T12:13:28.117Z,7.67
2023-04-29T12:15:56.119Z,8.57
2023-04-29T12:18:23.360Z,6.23
2023-04-29T12:20:54.663Z,6.17
2023-04-29T12:23:23.240Z,6.43
2023-04-29T12:25:57.724Z,6.70
2023-04-29T12:28:24.779Z,5.83
2023-04-29T12:30:53.844Z,5.70
2023-04-29T12:33:27.339Z,5.73
2023-04-29T12:35:58.924Z,5.20
2023-04-29T12:38:27.699Z,5.60
2023-04-29T12:40:56.475Z,6.57
2023-04-29T12:43:30.362Z,6.13
2023-04-29T12:46:12.944Z,6.03
2023-04-29T12:48:41.547Z,6.70
2023-04-29T12:51:10.091Z,6.73
2023-04-29T12:53:37.141Z,5.77
2023-04-29T12:56:04.140Z,6.70
2023-04-29T12:58:31.487Z,6.47
2023-04-29T13:00:59.240Z,6.77
2023-04-29T13:03:26.801Z,6.40
2023-04-29T13:05:54.680Z,6.83
2023-04-29T13:08:21.208Z,7.80
2023-04-29T13:10:47.668Z,8.00
2023-04-29T13:13:14.078Z,8.50
2023-04-29T13:15:40.504Z,7.50
2023-04-29T13:18:07.250Z,7.53
2023-04-29T13:20:40.482Z,8.00
2023-04-29T13:23:08.628Z,8.43
2023-04-29T13:25:35.354Z,9.00
2023-04-29T13:28:05.306Z,9.57
2023-04-29T13:30:32.105Z,9.27
2023-04-29T13:33:04.366Z,9.70
2023-04-29T13:35:38.273Z,10.37
2023-04-29T13:38:05.326Z,9.67
2023-04-29T13:40:31.744Z,10.83
2023-04-29T13:43:06.062Z,10.77
2023-04-29T13:45:41.583Z,10.07
2023-04-29T13:48:25.922Z,10.37
2023-04-29T13:51:37.296Z,9.77
2023-04-29T13:59:30.689Z,8.47
2023-04-29T14:03:58.670Z,8.40
2023-04-29T14:06:25.279Z,8.27
2023-04-29T14:08:51.768Z,8.23
2023-04-29T14:11:19.498Z,7.67
2023-04-29T14:13:45.892Z,6.70
2023-04-29T14:16:12.371Z,6.10
2023-04-29T14:18:38.794Z,5.77
2023-04-29T14:21:05.423Z,5.97
2023-04-29T14:23:31.953Z,6.20
2023-04-29T14:26:16.617Z,6.03
2023-04-29T14:28:44.802Z,5.90
2023-04-29T14:31:13.692Z,5.60
2023-04-29T14:33:40.559Z,5.93
2023-04-29T14:36:07.576Z,6.13
2023-04-29T14:38:34.276Z,5.73
2023-04-29T14:41:00.686Z,5.27
2023-04-29T14:43:28.813Z,6.10
2023-04-29T14:45:55.703Z,6.37
2023-04-29T14:48:22.252Z,5.80
2023-04-29T14:50:49.149Z,5.80
2023-04-29T14:53:16.012Z,5.03
2023-04-29T14:55:42.822Z,4.90
2023-04-29T14:58:10.233Z,4.87
2023-04-29T15:00:36.834Z,5.13
2023-04-29T15:03:05.134Z,4.80
2023-04-29T15:05:31.893Z,5.30
2023-04-29T15:08:00.031Z,5.20
2023-04-29T15:10:27.239Z,5.40
2023-04-29T15:12:54.401Z,5.30
2023-04-29T15:15:21.946Z,4.43
2023-04-29T15:17:48.631Z,4.47
2023-04-29T15:20:16.283Z,4.20
2023-04-29T15:22:42.731Z,3.77
2023-04-29T15:25:09.887Z,3.70
2023-04-29T15:27:37.697Z,3.80
2023-04-29T15:30:07.751Z,3.93
2023-04-29T15:32:34.440Z,3.93
2023-04-29T15:35:06.601Z,3.70
2023-04-29T15:37:33.304Z,4.07
2023-04-29T15:40:00.753Z,3.80
2023-04-29T15:42:28.393Z,4.57
2023-04-29T15:44:54.837Z,4.10
2023-04-29T15:47:21.792Z,3.90
2023-04-29T15:49:50.276Z,4.60
2023-04-29T15:52:16.673Z,4.47
2023-04-29T15:54:43.038Z,4.33
2023-04-29T15:57:09.742Z,4.47
2023-04-29T15:59:36.204Z,4.50
2023-04-29T16:02:03.698Z,4.20
2023-04-29T16:04:31.682Z,4.90
2023-04-29T16:06:58.322Z,4.40
2023-04-29T16:09:24.732Z,4.30
2023-04-29T16:11:53.599Z,3.93
2023-04-29T16:14:19.989Z,3.70
2023-04-29T16:16:46.586Z,4.10
2023-04-29T16:19:13.488Z,4.10
2023-04-29T16:21:39.929Z,4.30
2023-04-29T16:24:07.753Z,3.90
2023-04-29T16:26:35.597Z,3.90
2023-04-29T16:29:02.141Z,4.07
2023-04-29T16:31:29.282Z,3.70
2023-04-29T16:33:57.440Z,3.90
2023-04-29T16:36:24.541Z,3.13
2023-04-29T16:38:51.486Z,3.13
2023-04-29T16:41:17.900Z,2.80
2023-04-29T16:43:44.399Z,3.30
2023-04-29T16:46:10.868Z,4.40
2023-04-29T16:48:37.509Z,2.93
2023-04-29T16:51:04.495Z,4.20
2023-04-29T16:53:31.324Z,3.43
2023-04-29T16:55:57.710Z,3.00
2023-04-29T16:58:24.164Z,3.10
2023-04-29T17:00:50.842Z,3.47
2023-04-29T17:03:17.642Z,3.30
2023-04-29T17:05:44.134Z,2.90
2023-04-29T17:08:10.770Z,3.07
2023-04-29T17:10:37.296Z,3.20
2023-04-29T17:13:03.703Z,2.83
2023-04-29T17:15:30.177Z,2.80
2023-04-29T17:17:56.685Z,3.20
2023-04-29T17:20:23.091Z,3.07
2023-04-29T17:22:49.793Z,2.77
2023-04-29T17:25:16.219Z,2.50
2023-04-29T17:27:46.026Z,6.47
2023-04-29T17:30:12.891Z,3.80
2023-04-29T17:32:39.673Z,5.27
2023-04-29T17:35:08.017Z,5.83
2023-04-29T17:37:35.257Z,4.87
2023-04-29T17:40:02.653Z,5.20
2023-04-29T17:42:29.238Z,4.87
2023-04-29T17:44:55.712Z,3.93
2023-04-29T17:47:23.256Z,5.40
2023-04-29T17:49:51.912Z,3.83
2023-04-29T17:52:21.278Z,3.77
2023-04-29T17:54:50.750Z,3.20
2023-04-29T17:57:17.246Z,2.87
2023-04-29T17:59:43.622Z,3.57
2023-04-29T18:02:10.082Z,3.00
2023-04-29T18:04:37.341Z,3.30
2023-04-29T18:07:04.022Z,3.30
2023-04-29T18:09:30.510Z,2.97
2023-04-29T18:11:56.894Z,3.23
2023-04-29T18:14:23.283Z,3.47
2023-04-29T18:16:49.780Z,3.40
2023-04-29T18:19:16.386Z,3.47
2023-04-29T18:21:42.837Z,3.67
2023-04-29T18:24:09.252Z,3.67
2023-04-29T18:26:35.805Z,3.53
2023-04-29T18:29:02.335Z,4.00
2023-04-29T18:31:28.909Z,3.87
2023-04-29T18:33:55.391Z,4.20
2023-04-29T18:36:23.566Z,3.67
2023-04-29T18:38:50.518Z,3.60
2023-04-29T18:41:16.989Z,3.63
2023-04-29T18:43:43.533Z,3.63
2023-04-29T18:46:10.157Z,3.63
2023-04-29T18:48:38.195Z,4.57
2023-04-29T18:51:05.991Z,3.43
2023-04-29T18:53:32.740Z,3.47
2023-04-29T18:55:59.194Z,3.43
2023-04-29T18:58:28.552Z,3.43
2023-04-29T19:00:57.540Z,3.50
2023-04-29T19:03:24.087Z,3.47
2023-04-29T19:05:50.712Z,3.37
2023-04-29T19:08:17.140Z,2.90
2023-04-29T19:10:44.405Z,3.20
2023-04-29T19:13:11.394Z,3.70
2023-04-29T19:15:38.453Z,3.47
2023-04-29T19:18:05.027Z,3.50
2023-04-29T19:20:31.992Z,3.40
2023-04-29T19:22:58.818Z,3.50
2023-04-29T19:25:28.209Z,3.20
2023-04-29T19:27:54.889Z,3.43
2023-04-29T19:30:21.331Z,3.37
2023-04-29T19:32:48.417Z,3.50
2023-04-29T19:35:14.939Z,3.37
2023-04-29T19:37:41.337Z,3.23
2023-04-29T19:40:10.446Z,3.30
2023-04-29T19:42:37.862Z,3.30
2023-04-29T19:45:07.502Z,3.50
2023-04-29T19:47:34.742Z,4.00
2023-04-29T19:50:01.355Z,4.20
2023-04-29T19:52:27.792Z,4.37
2023-04-29T19:54:54.225Z,4.33
2023-04-29T19:57:20.665Z,4.77
2023-04-29T19:59:47.082Z,5.07
2023-04-29T20:02:13.677Z,4.70
2023-04-29T20:04:40.363Z,4.67
2023-04-29T20:07:06.786Z,4.70
2023-04-29T20:09:33.592Z,4.13
2023-04-29T20:12:02.644Z,5.00
2023-04-29T20:14:29.574Z,4.97
2023-04-29T20:16:57.586Z,5.30
2023-04-29T20:19:26.229Z,5.30
2023-04-29T20:21:52.806Z,5.00
2023-04-29T20:24:19.223Z,5.27
2023-04-29T20:26:46.371Z,5.10
2023-04-29T20:29:12.801Z,4.83
2023-04-29T20:31:39.232Z,5.07
2023-04-29T20:34:05.905Z,4.97
2023-04-29T20:36:32.413Z,4.73
2023-04-29T20:38:58.820Z,4.87
2023-04-29T20:41:27.928Z,5.00
2023-04-29T20:43:55.041Z,7.50
2023-04-29T20:46:24.035Z,4.57
2023-04-29T20:48:51.815Z,4.50
2023-04-29T20:51:18.248Z,4.80
2023-04-29T20:53:44.677Z,4.97
2023-04-29T20:56:11.154Z,4.57
2023-04-29T20:58:37.639Z,4.37
2023-04-29T21:01:04.465Z,4.40
2023-04-29T21:03:31.018Z,4.10
2023-04-29T21:05:57.475Z,3.97
2023-04-29T21:08:25.085Z,3.87
2023-04-29T21:10:51.686Z,4.20
2023-04-29T21:13:18.190Z,4.20
2023-04-29T21:15:47.884Z,4.00
2023-04-29T21:18:14.647Z,3.90
2023-04-29T21:20:41.114Z,3.80
2023-04-29T21:23:07.620Z,3.47
2023-04-29T21:25:34.202Z,3.70
2023-04-29T21:28:01.895Z,4.30
2023-04-29T21:30:28.670Z,4.10
2023-04-29T21:32:55.169Z,3.90
2023-04-29T21:35:21.699Z,4.37
2023-04-29T21:37:48.207Z,4.47
2023-04-29T21:40:14.755Z,4.00
2023-04-29T21:42:43.601Z,3.90
2023-04-29T21:45:12.752Z,4.37
2023-04-29T21:47:39.824Z,4.13
2023-04-29T21:50:07.825Z,3.77
2023-04-29T21:52:35.114Z,4.37
2023-04-29T21:55:03.540Z,4.80
2023-04-29T21:57:43.009Z,4.57
2023-04-29T22:00:33.079Z,4.40
2023-04-29T22:03:01.507Z,4.07
2023-04-29T22:05:28.192Z,4.03
2023-04-29T22:07:57.151Z,3.87
2023-04-29T22:10:23.567Z,4.00
2023-04-29T22:12:50.550Z,4.20
2023-04-29T22:15:28.318Z,4.57
2023-04-29T22:17:56.803Z,3.80
2023-04-29T22:20:23.548Z,3.50
2023-04-29T22:22:49.932Z,3.77
2023-04-29T22:25:16.477Z,4.10
2023-04-29T22:27:42.881Z,3.33
2023-04-29T22:30:09.661Z,3.30
2023-04-29T22:32:36.264Z,3.57
2023-04-29T22:35:03.043Z,3.50
2023-04-29T22:37:29.550Z,3.23
2023-04-29T22:39:56.818Z,3.40
2023-04-29T22:42:23.612Z,3.17
2023-04-29T22:44:50.459Z,3.77
2023-04-29T22:47:17.067Z,3.30
2023-04-29T22:49:43.520Z,3.10
2023-04-29T22:52:10.097Z,3.30
2023-04-29T22:54:36.648Z,3.13
2023-04-29T22:57:04.014Z,3.20
2023-04-29T22:59:30.687Z,3.07
2023-04-29T23:01:57.364Z,3.27
2023-04-29T23:04:24.582Z,3.20
2023-04-29T23:06:51.710Z,3.00
2023-04-29T23:09:18.177Z,3.30
2023-04-29T23:11:44.855Z,3.60
2023-04-29T23:14:11.228Z,2.90
2023-04-29T23:16:37.762Z,2.83
2023-04-29T23:19:04.960Z,3.03
2023-04-29T23:21:32.544Z,2.73
2023-04-29T23:23:58.985Z,2.73
2023-04-29T23:26:25.458Z,3.63
2023-04-29T23:28:51.902Z,2.83
2023-04-29T23:31:18.343Z,2.90
2023-04-29T23:33:44.840Z,3.03
2023-04-29T23:36:11.774Z,2.53
2023-04-29T23:38:38.196Z,2.97
2023-04-29T23:41:05.025Z,3.00
2023-04-29T23:43:32.044Z,2.90
2023-04-29T23:45:58.819Z,2.60
2023-04-29T23:48:25.305Z,2.73
2023-04-29T23:50:51.790Z,2.90
2023-04-29T23:53:18.547Z,2.90
2023-04-29T23:55:44.950Z,2.90
2023-04-29T23:58:11.372Z,3.20
